sensor_id;sensor_type;location;lat;lon;timestamp;temperature;humidity
73939;DHT22;62291;47.554;8.504;2023-04-09T00:00:23;5.40;99.90
73939;DHT22;62291;47.554;8.504;2023-04-09T00:02:48;5.40;99.90
73939;DHT22;62291;47.554;8.504;2023-04-09T00:05:14;5.20;99.90
73939;DHT22;62291;47.554;8.504;2023-04-09T00:07:39;5.20;99.90
73939;DHT22;62291;47.554;8.504;2023-04-09T00:10:05;5.20;99.90
73939;DHT22;62291;47.554;8.504;2023-04-09T00:12:31;5.30;99.90
73939;DHT22;62291;47.554;8.504;2023-04-09T00:14:56;5.40;99.90
73939;DHT22;62291;47.554;8.504;2023-04-09T00:17:22;5.40;99.90
73939;DHT22;62291;47.554;8.504;2023-04-09T00:19:48;5.30;99.90
73939;DHT22;62291;47.554;8.504;2023-04-09T00:22:13;5.40;99.90
73939;DHT22;62291;47.554;8.504;2023-04-09T00:24:39;5.50;99.90
73939;DHT22;62291;47.554;8.504;2023-04-09T00:27:05;5.50;99.90
73939;DHT22;62291;47.554;8.504;2023-04-09T00:29:31;5.60;99.90
73939;DHT22;62291;47.554;8.504;2023-04-09T00:31:56;5.60;99.90
73939;DHT22;62291;47.554;8.504;2023-04-09T00:34:22;5.70;99.90
73939;DHT22;62291;47.554;8.504;2023-04-09T00:36:47;5.70;99.90
73939;DHT22;62291;47.554;8.504;2023-04-09T00:39:13;5.80;99.90
73939;DHT22;62291;47.554;8.504;2023-04-09T00:41:38;5.80;99.90
73939;DHT22;62291;47.554;8.504;2023-04-09T00:44:04;5.80;99.90
73939;DHT22;62291;47.554;8.504;2023-04-09T00:46:30;5.90;99.90
73939;DHT22;62291;47.554;8.504;2023-04-09T00:48:55;6.00;99.90
73939;DHT22;62291;47.554;8.504;2023-04-09T00:51:21;6.00;99.90
73939;DHT22;62291;47.554;8.504;2023-04-09T00:53:47;6.10;99.90
73939;DHT22;62291;47.554;8.504;2023-04-09T00:56:12;6.10;99.90
73939;DHT22;62291;47.554;8.504;2023-04-09T00:58:39;6.10;99.90
73939;DHT22;62291;47.554;8.504;2023-04-09T01:01:06;6.10;99.90
73939;DHT22;62291;47.554;8.504;2023-04-09T01:03:31;6.10;99.90
73939;DHT22;62291;47.554;8.504;2023-04-09T01:08:35;6.20;99.90
73939;DHT22;62291;47.554;8.504;2023-04-09T01:11:03;6.20;99.90
73939;DHT22;62291;47.554;8.504;2023-04-09T01:13:48;6.30;99.90
73939;DHT22;62291;47.554;8.504;2023-04-09T01:16:15;6.30;99.90
73939;DHT22;62291;47.554;8.504;2023-04-09T01:21:11;6.40;99.90
73939;DHT22;62291;47.554;8.504;2023-04-09T01:28:53;6.40;99.90
73939;DHT22;62291;47.554;8.504;2023-04-09T01:31:19;6.50;99.90
73939;DHT22;62291;47.554;8.504;2023-04-09T01:33:46;6.50;99.90
73939;DHT22;62291;47.554;8.504;2023-04-09T01:36:11;6.40;99.90
73939;DHT22;62291;47.554;8.504;2023-04-09T01:38:39;6.50;99.90
73939;DHT22;62291;47.554;8.504;2023-04-09T01:41:06;6.50;99.90
73939;DHT22;62291;47.554;8.504;2023-04-09T01:43:32;6.50;99.90
73939;DHT22;62291;47.554;8.504;2023-04-09T01:45:58;6.50;99.90
73939;DHT22;62291;47.554;8.504;2023-04-09T01:48:24;6.50;99.90
73939;DHT22;62291;47.554;8.504;2023-04-09T01:50:50;6.50;99.90
73939;DHT22;62291;47.554;8.504;2023-04-09T01:53:16;6.50;99.90
73939;DHT22;62291;47.554;8.504;2023-04-09T01:55:42;6.50;99.90
73939;DHT22;62291;47.554;8.504;2023-04-09T01:58:07;6.50;99.90
73939;DHT22;62291;47.554;8.504;2023-04-09T02:00:37;6.50;99.90
73939;DHT22;62291;47.554;8.504;2023-04-09T02:05:34;6.50;99.90
73939;DHT22;62291;47.554;8.504;2023-04-09T02:08:00;6.50;99.90
73939;DHT22;62291;47.554;8.504;2023-04-09T02:10:27;6.50;99.90
73939;DHT22;62291;47.554;8.504;2023-04-09T02:12:55;6.30;99.90
73939;DHT22;62291;47.554;8.504;2023-04-09T02:15:22;6.20;99.90
73939;DHT22;62291;47.554;8.504;2023-04-09T02:17:48;6.20;99.90
73939;DHT22;62291;47.554;8.504;2023-04-09T02:20:17;6.10;99.90
73939;DHT22;62291;47.554;8.504;2023-04-09T02:22:43;6.20;99.90
73939;DHT22;62291;47.554;8.504;2023-04-09T02:25:09;6.10;99.90
73939;DHT22;62291;47.554;8.504;2023-04-09T02:27:34;6.10;99.90
73939;DHT22;62291;47.554;8.504;2023-04-09T02:30:00;6.00;99.90
73939;DHT22;62291;47.554;8.504;2023-04-09T02:32:26;5.90;99.90
73939;DHT22;62291;47.554;8.504;2023-04-09T02:34:51;5.80;99.90
73939;DHT22;62291;47.554;8.504;2023-04-09T02:37:17;5.60;99.90
73939;DHT22;62291;47.554;8.504;2023-04-09T02:39:42;5.50;99.90
73939;DHT22;62291;47.554;8.504;2023-04-09T02:42:08;5.40;99.90
73939;DHT22;62291;47.554;8.504;2023-04-09T02:44:34;5.30;99.90
73939;DHT22;62291;47.554;8.504;2023-04-09T02:46:59;5.20;99.90
73939;DHT22;62291;47.554;8.504;2023-04-09T02:49:25;5.20;99.90
73939;DHT22;62291;47.554;8.504;2023-04-09T02:51:50;5.10;99.90
73939;DHT22;62291;47.554;8.504;2023-04-09T02:54:16;5.00;99.90
73939;DHT22;62291;47.554;8.504;2023-04-09T02:56:41;5.00;99.90
73939;DHT22;62291;47.554;8.504;2023-04-09T02:59:07;4.90;99.90
73939;DHT22;62291;47.554;8.504;2023-04-09T03:01:32;4.90;99.90
73939;DHT22;62291;47.554;8.504;2023-04-09T03:03:58;4.90;99.90
73939;DHT22;62291;47.554;8.504;2023-04-09T03:06:24;4.90;99.90
73939;DHT22;62291;47.554;8.504;2023-04-09T03:08:50;4.90;99.90
73939;DHT22;62291;47.554;8.504;2023-04-09T03:11:16;4.90;99.90
73939;DHT22;62291;47.554;8.504;2023-04-09T03:13:42;4.80;99.90
73939;DHT22;62291;47.554;8.504;2023-04-09T03:16:07;4.80;99.90
73939;DHT22;62291;47.554;8.504;2023-04-09T03:18:34;4.80;99.90
73939;DHT22;62291;47.554;8.504;2023-04-09T03:21:03;4.70;99.90
73939;DHT22;62291;47.554;8.504;2023-04-09T03:23:29;4.60;99.90
73939;DHT22;62291;47.554;8.504;2023-04-09T03:26:03;4.50;99.90
73939;DHT22;62291;47.554;8.504;2023-04-09T03:28:29;4.50;99.90
73939;DHT22;62291;47.554;8.504;2023-04-09T03:30:54;4.40;99.90
73939;DHT22;62291;47.554;8.504;2023-04-09T03:33:20;4.40;99.90
73939;DHT22;62291;47.554;8.504;2023-04-09T03:35:46;4.30;99.90
73939;DHT22;62291;47.554;8.504;2023-04-09T03:38:11;4.20;99.90
73939;DHT22;62291;47.554;8.504;2023-04-09T03:40:37;4.10;99.90
73939;DHT22;62291;47.554;8.504;2023-04-09T03:43:02;4.10;99.90
73939;DHT22;62291;47.554;8.504;2023-04-09T03:45:28;4.10;99.90
73939;DHT22;62291;47.554;8.504;2023-04-09T03:47:54;4.10;99.90
73939;DHT22;62291;47.554;8.504;2023-04-09T03:50:19;4.10;99.90
73939;DHT22;62291;47.554;8.504;2023-04-09T03:52:45;3.90;99.90
73939;DHT22;62291;47.554;8.504;2023-04-09T03:55:11;3.90;99.90
73939;DHT22;62291;47.554;8.504;2023-04-09T03:57:37;3.80;99.90
73939;DHT22;62291;47.554;8.504;2023-04-09T04:00:02;3.80;99.90
73939;DHT22;62291;47.554;8.504;2023-04-09T04:02:28;3.70;99.90
73939;DHT22;62291;47.554;8.504;2023-04-09T04:04:58;3.70;99.90
73939;DHT22;62291;47.554;8.504;2023-04-09T04:07:23;3.70;99.90
73939;DHT22;62291;47.554;8.504;2023-04-09T04:09:49;3.60;99.90
73939;DHT22;62291;47.554;8.504;2023-04-09T04:12:14;3.60;99.90
73939;DHT22;62291;47.554;8.504;2023-04-09T04:14:40;3.60;99.90
73939;DHT22;62291;47.554;8.504;2023-04-09T04:17:05;3.60;99.90
73939;DHT22;62291;47.554;8.504;2023-04-09T04:19:31;3.60;99.90
73939;DHT22;62291;47.554;8.504;2023-04-09T04:21:57;3.60;99.90
73939;DHT22;62291;47.554;8.504;2023-04-09T04:24:22;3.60;99.90
73939;DHT22;62291;47.554;8.504;2023-04-09T04:26:48;3.60;99.90
73939;DHT22;62291;47.554;8.504;2023-04-09T04:29:13;3.60;99.90
73939;DHT22;62291;47.554;8.504;2023-04-09T04:31:39;3.70;99.90
73939;DHT22;62291;47.554;8.504;2023-04-09T04:34:05;3.70;99.90
73939;DHT22;62291;47.554;8.504;2023-04-09T04:36:30;3.70;99.90
73939;DHT22;62291;47.554;8.504;2023-04-09T04:38:56;3.70;99.90
73939;DHT22;62291;47.554;8.504;2023-04-09T04:41:21;3.70;99.90
73939;DHT22;62291;47.554;8.504;2023-04-09T04:43:47;3.70;99.90
73939;DHT22;62291;47.554;8.504;2023-04-09T04:46:12;3.70;99.90
73939;DHT22;62291;47.554;8.504;2023-04-09T04:48:38;3.70;99.90
73939;DHT22;62291;47.554;8.504;2023-04-09T04:51:03;3.70;99.90
73939;DHT22;62291;47.554;8.504;2023-04-09T04:53:29;3.70;99.90
73939;DHT22;62291;47.554;8.504;2023-04-09T04:55:55;3.80;99.90
73939;DHT22;62291;47.554;8.504;2023-04-09T04:58:20;3.80;99.90
73939;DHT22;62291;47.554;8.504;2023-04-09T05:00:46;3.90;99.90
73939;DHT22;62291;47.554;8.504;2023-04-09T05:03:11;3.90;99.90
73939;DHT22;62291;47.554;8.504;2023-04-09T05:05:37;4.00;99.90
73939;DHT22;62291;47.554;8.504;2023-04-09T05:08:03;4.00;99.90
73939;DHT22;62291;47.554;8.504;2023-04-09T05:10:28;3.90;99.90
73939;DHT22;62291;47.554;8.504;2023-04-09T05:12:55;3.90;99.90
73939;DHT22;62291;47.554;8.504;2023-04-09T05:15:20;3.90;99.90
73939;DHT22;62291;47.554;8.504;2023-04-09T05:17:46;3.90;99.90
73939;DHT22;62291;47.554;8.504;2023-04-09T05:20:12;3.90;99.90
73939;DHT22;62291;47.554;8.504;2023-04-09T05:22:37;3.90;99.90
73939;DHT22;62291;47.554;8.504;2023-04-09T05:25:03;4.00;99.90
73939;DHT22;62291;47.554;8.504;2023-04-09T05:27:28;4.10;99.90
73939;DHT22;62291;47.554;8.504;2023-04-09T05:29:54;4.10;99.90
73939;DHT22;62291;47.554;8.504;2023-04-09T05:32:20;4.30;99.90
73939;DHT22;62291;47.554;8.504;2023-04-09T05:34:45;4.40;99.90
73939;DHT22;62291;47.554;8.504;2023-04-09T05:37:11;4.50;99.90
73939;DHT22;62291;47.554;8.504;2023-04-09T05:39:37;4.60;99.90
73939;DHT22;62291;47.554;8.504;2023-04-09T05:42:02;4.60;99.90
73939;DHT22;62291;47.554;8.504;2023-04-09T05:44:28;5.00;99.90
73939;DHT22;62291;47.554;8.504;2023-04-09T05:46:54;5.20;99.90
73939;DHT22;62291;47.554;8.504;2023-04-09T05:49:19;5.20;99.90
73939;DHT22;62291;47.554;8.504;2023-04-09T05:51:45;5.10;99.90
73939;DHT22;62291;47.554;8.504;2023-04-09T05:54:10;5.00;99.90
73939;DHT22;62291;47.554;8.504;2023-04-09T05:56:36;5.00;99.90
73939;DHT22;62291;47.554;8.504;2023-04-09T05:59:01;5.00;99.90
73939;DHT22;62291;47.554;8.504;2023-04-09T06:01:27;5.00;99.90
73939;DHT22;62291;47.554;8.504;2023-04-09T06:03:53;5.20;99.90
73939;DHT22;62291;47.554;8.504;2023-04-09T06:06:19;5.30;99.90
73939;DHT22;62291;47.554;8.504;2023-04-09T06:08:45;5.30;99.90
73939;DHT22;62291;47.554;8.504;2023-04-09T06:11:10;5.40;99.90
73939;DHT22;62291;47.554;8.504;2023-04-09T06:13:36;5.70;99.90
73939;DHT22;62291;47.554;8.504;2023-04-09T06:16:03;5.80;99.90
73939;DHT22;62291;47.554;8.504;2023-04-09T06:18:28;5.80;99.90
73939;DHT22;62291;47.554;8.504;2023-04-09T06:21:01;5.80;99.90
73939;DHT22;62291;47.554;8.504;2023-04-09T06:23:26;6.00;99.90
73939;DHT22;62291;47.554;8.504;2023-04-09T06:25:52;6.20;99.90
73939;DHT22;62291;47.554;8.504;2023-04-09T06:28:17;6.20;99.90
73939;DHT22;62291;47.554;8.504;2023-04-09T06:30:43;6.30;99.90
73939;DHT22;62291;47.554;8.504;2023-04-09T06:33:08;6.20;99.90
73939;DHT22;62291;47.554;8.504;2023-04-09T06:35:34;6.10;99.90
73939;DHT22;62291;47.554;8.504;2023-04-09T06:38:00;6.10;99.90
73939;DHT22;62291;47.554;8.504;2023-04-09T06:40:26;6.10;99.90
73939;DHT22;62291;47.554;8.504;2023-04-09T06:42:51;6.10;99.90
73939;DHT22;62291;47.554;8.504;2023-04-09T06:45:17;6.30;99.90
73939;DHT22;62291;47.554;8.504;2023-04-09T06:47:42;6.30;99.90
73939;DHT22;62291;47.554;8.504;2023-04-09T06:50:08;6.20;99.90
73939;DHT22;62291;47.554;8.504;2023-04-09T06:52:33;6.10;99.90
73939;DHT22;62291;47.554;8.504;2023-04-09T06:54:59;5.90;99.90
73939;DHT22;62291;47.554;8.504;2023-04-09T06:57:24;5.80;99.90
73939;DHT22;62291;47.554;8.504;2023-04-09T06:59:50;5.80;99.90
73939;DHT22;62291;47.554;8.504;2023-04-09T07:02:16;5.80;99.90
73939;DHT22;62291;47.554;8.504;2023-04-09T07:04:41;5.90;99.90
73939;DHT22;62291;47.554;8.504;2023-04-09T07:07:07;5.90;99.90
73939;DHT22;62291;47.554;8.504;2023-04-09T07:09:32;6.00;99.90
73939;DHT22;62291;47.554;8.504;2023-04-09T07:11:58;6.00;99.90
73939;DHT22;62291;47.554;8.504;2023-04-09T07:14:23;6.10;99.90
73939;DHT22;62291;47.554;8.504;2023-04-09T07:16:49;6.30;99.90
73939;DHT22;62291;47.554;8.504;2023-04-09T07:19:15;6.40;99.90
73939;DHT22;62291;47.554;8.504;2023-04-09T07:21:40;6.50;99.90
73939;DHT22;62291;47.554;8.504;2023-04-09T07:24:06;6.50;99.90
73939;DHT22;62291;47.554;8.504;2023-04-09T07:26:32;6.60;99.90
73939;DHT22;62291;47.554;8.504;2023-04-09T07:28:57;7.70;99.90
73939;DHT22;62291;47.554;8.504;2023-04-09T07:31:23;9.00;99.90
73939;DHT22;62291;47.554;8.504;2023-04-09T07:33:49;9.60;99.90
73939;DHT22;62291;47.554;8.504;2023-04-09T07:36:14;9.00;99.90
73939;DHT22;62291;47.554;8.504;2023-04-09T07:38:40;9.10;99.90
73939;DHT22;62291;47.554;8.504;2023-04-09T07:41:05;9.60;99.90
73939;DHT22;62291;47.554;8.504;2023-04-09T07:43:31;10.20;99.90
73939;DHT22;62291;47.554;8.504;2023-04-09T07:45:57;10.50;99.90
73939;DHT22;62291;47.554;8.504;2023-04-09T07:48:22;10.70;99.90
73939;DHT22;62291;47.554;8.504;2023-04-09T07:50:48;10.80;99.90
73939;DHT22;62291;47.554;8.504;2023-04-09T07:53:14;10.80;99.90
73939;DHT22;62291;47.554;8.504;2023-04-09T07:55:39;11.40;99.90
73939;DHT22;62291;47.554;8.504;2023-04-09T07:58:05;11.80;99.90
73939;DHT22;62291;47.554;8.504;2023-04-09T08:00:31;11.50;99.90
73939;DHT22;62291;47.554;8.504;2023-04-09T08:02:57;11.60;99.90
73939;DHT22;62291;47.554;8.504;2023-04-09T08:05:23;11.00;99.90
73939;DHT22;62291;47.554;8.504;2023-04-09T08:07:51;10.70;99.90
73939;DHT22;62291;47.554;8.504;2023-04-09T08:10:17;10.90;99.90
73939;DHT22;62291;47.554;8.504;2023-04-09T08:12:43;11.50;99.90
73939;DHT22;62291;47.554;8.504;2023-04-09T08:15:09;12.10;99.90
73939;DHT22;62291;47.554;8.504;2023-04-09T08:17:34;12.60;99.90
73939;DHT22;62291;47.554;8.504;2023-04-09T08:20:02;12.70;99.90
73939;DHT22;62291;47.554;8.504;2023-04-09T08:22:28;13.10;98.80
73939;DHT22;62291;47.554;8.504;2023-04-09T08:24:54;13.50;97.90
73939;DHT22;62291;47.554;8.504;2023-04-09T08:27:20;13.50;98.10
73939;DHT22;62291;47.554;8.504;2023-04-09T08:29:46;13.50;97.00
73939;DHT22;62291;47.554;8.504;2023-04-09T08:32:11;13.70;97.30
73939;DHT22;62291;47.554;8.504;2023-04-09T08:34:37;13.60;96.30
73939;DHT22;62291;47.554;8.504;2023-04-09T08:37:02;14.00;97.70
73939;DHT22;62291;47.554;8.504;2023-04-09T08:39:28;14.60;96.70
73939;DHT22;62291;47.554;8.504;2023-04-09T08:41:54;14.30;94.40
73939;DHT22;62291;47.554;8.504;2023-04-09T08:44:24;13.80;95.80
73939;DHT22;62291;47.554;8.504;2023-04-09T08:46:50;13.80;97.40
73939;DHT22;62291;47.554;8.504;2023-04-09T08:49:15;13.80;94.70
73939;DHT22;62291;47.554;8.504;2023-04-09T08:51:44;14.20;95.80
73939;DHT22;62291;47.554;8.504;2023-04-09T08:54:13;14.60;93.30
73939;DHT22;62291;47.554;8.504;2023-04-09T08:56:38;14.30;93.20
73939;DHT22;62291;47.554;8.504;2023-04-09T08:59:04;14.50;95.90
73939;DHT22;62291;47.554;8.504;2023-04-09T09:01:30;14.80;94.80
73939;DHT22;62291;47.554;8.504;2023-04-09T09:06:22;14.20;94.20
73939;DHT22;62291;47.554;8.504;2023-04-09T09:09:07;14.50;95.60
73939;DHT22;62291;47.554;8.504;2023-04-09T09:11:34;14.30;93.80
73939;DHT22;62291;47.554;8.504;2023-04-09T09:14:10;14.30;96.10
73939;DHT22;62291;47.554;8.504;2023-04-09T09:16:39;14.40;93.50
73939;DHT22;62291;47.554;8.504;2023-04-09T09:19:29;14.60;94.00
73939;DHT22;62291;47.554;8.504;2023-04-09T09:24:24;14.40;92.80
73939;DHT22;62291;47.554;8.504;2023-04-09T09:26:50;14.20;94.90
73939;DHT22;62291;47.554;8.504;2023-04-09T09:29:16;14.40;94.00
73939;DHT22;62291;47.554;8.504;2023-04-09T09:31:45;14.40;95.10
73939;DHT22;62291;47.554;8.504;2023-04-09T09:34:14;14.50;93.10
73939;DHT22;62291;47.554;8.504;2023-04-09T09:36:41;14.70;95.00
73939;DHT22;62291;47.554;8.504;2023-04-09T09:39:06;14.40;92.60
73939;DHT22;62291;47.554;8.504;2023-04-09T09:41:39;14.70;93.40
73939;DHT22;62291;47.554;8.504;2023-04-09T09:44:06;14.70;93.40
73939;DHT22;62291;47.554;8.504;2023-04-09T09:46:33;14.60;92.40
73939;DHT22;62291;47.554;8.504;2023-04-09T09:48:58;14.50;92.80
73939;DHT22;62291;47.554;8.504;2023-04-09T09:51:25;14.10;93.90
73939;DHT22;62291;47.554;8.504;2023-04-09T09:53:53;14.00;92.20
73939;DHT22;62291;47.554;8.504;2023-04-09T09:56:20;14.30;93.00
73939;DHT22;62291;47.554;8.504;2023-04-09T09:59:29;14.30;92.00
73939;DHT22;62291;47.554;8.504;2023-04-09T10:01:35;14.70;94.20
73939;DHT22;62291;47.554;8.504;2023-04-09T10:04:01;14.40;91.70
73939;DHT22;62291;47.554;8.504;2023-04-09T10:06:29;14.40;92.00
73939;DHT22;62291;47.554;8.504;2023-04-09T10:08:58;14.70;91.40
73939;DHT22;62291;47.554;8.504;2023-04-09T10:11:25;15.20;93.00
73939;DHT22;62291;47.554;8.504;2023-04-09T10:13:55;15.40;90.80
73939;DHT22;62291;47.554;8.504;2023-04-09T10:16:24;15.50;91.30
73939;DHT22;62291;47.554;8.504;2023-04-09T10:18:50;15.30;92.30
73939;DHT22;62291;47.554;8.504;2023-04-09T10:21:19;15.10;91.50
73939;DHT22;62291;47.554;8.504;2023-04-09T10:23:48;15.20;90.20
73939;DHT22;62291;47.554;8.504;2023-04-09T10:26:15;15.10;90.50
73939;DHT22;62291;47.554;8.504;2023-04-09T10:28:42;15.30;89.90
73939;DHT22;62291;47.554;8.504;2023-04-09T10:31:07;15.60;90.10
73939;DHT22;62291;47.554;8.504;2023-04-09T10:33:34;15.70;88.50
73939;DHT22;62291;47.554;8.504;2023-04-09T10:36:02;15.60;88.90
73939;DHT22;62291;47.554;8.504;2023-04-09T10:38:46;14.50;90.00
73939;DHT22;62291;47.554;8.504;2023-04-09T10:41:13;13.90;93.60
73939;DHT22;62291;47.554;8.504;2023-04-09T10:43:40;14.30;90.90
73939;DHT22;62291;47.554;8.504;2023-04-09T10:46:24;14.20;91.00
73939;DHT22;62291;47.554;8.504;2023-04-09T10:49:09;13.80;91.00
73939;DHT22;62291;47.554;8.504;2023-04-09T10:51:36;13.80;93.00
73939;DHT22;62291;47.554;8.504;2023-04-09T10:54:05;14.20;91.80
73939;DHT22;62291;47.554;8.504;2023-04-09T10:56:31;14.40;92.00
73939;DHT22;62291;47.554;8.504;2023-04-09T10:58:57;14.50;92.10
73939;DHT22;62291;47.554;8.504;2023-04-09T11:01:23;14.40;90.00
73939;DHT22;62291;47.554;8.504;2023-04-09T11:04:12;14.50;90.60
73939;DHT22;62291;47.554;8.504;2023-04-09T11:06:39;14.80;89.40
73939;DHT22;62291;47.554;8.504;2023-04-09T11:09:05;15.00;88.70
73939;DHT22;62291;47.554;8.504;2023-04-09T11:11:30;15.30;90.10
73939;DHT22;62291;47.554;8.504;2023-04-09T11:13:58;15.20;88.80
73939;DHT22;62291;47.554;8.504;2023-04-09T11:16:28;15.00;86.20
73939;DHT22;62291;47.554;8.504;2023-04-09T11:18:53;14.80;89.10
73939;DHT22;62291;47.554;8.504;2023-04-09T11:21:20;14.90;83.30
73939;DHT22;62291;47.554;8.504;2023-04-09T11:23:52;14.80;87.00
73939;DHT22;62291;47.554;8.504;2023-04-09T11:26:53;14.90;86.10
73939;DHT22;62291;47.554;8.504;2023-04-09T11:29:11;14.70;84.10
73939;DHT22;62291;47.554;8.504;2023-04-09T11:31:37;14.80;85.40
73939;DHT22;62291;47.554;8.504;2023-04-09T11:34:02;14.80;88.70
73939;DHT22;62291;47.554;8.504;2023-04-09T11:36:28;14.50;88.40
73939;DHT22;62291;47.554;8.504;2023-04-09T11:38:54;14.90;90.00
73939;DHT22;62291;47.554;8.504;2023-04-09T11:41:37;15.20;86.30
73939;DHT22;62291;47.554;8.504;2023-04-09T11:44:03;15.20;83.90
73939;DHT22;62291;47.554;8.504;2023-04-09T11:46:38;14.90;85.20
73939;DHT22;62291;47.554;8.504;2023-04-09T11:49:05;14.80;84.70
73939;DHT22;62291;47.554;8.504;2023-04-09T11:51:31;14.50;87.70
73939;DHT22;62291;47.554;8.504;2023-04-09T11:54:00;14.40;89.60
73939;DHT22;62291;47.554;8.504;2023-04-09T11:56:27;14.50;85.60
73939;DHT22;62291;47.554;8.504;2023-04-09T11:58:53;14.70;90.20
73939;DHT22;62291;47.554;8.504;2023-04-09T12:01:20;14.30;84.90
73939;DHT22;62291;47.554;8.504;2023-04-09T12:03:51;13.70;86.10
73939;DHT22;62291;47.554;8.504;2023-04-09T12:06:17;13.00;86.30
73939;DHT22;62291;47.554;8.504;2023-04-09T12:08:44;13.50;86.40
73939;DHT22;62291;47.554;8.504;2023-04-09T12:11:10;13.50;85.30
73939;DHT22;62291;47.554;8.504;2023-04-09T12:13:36;14.00;87.70
73939;DHT22;62291;47.554;8.504;2023-04-09T12:16:07;14.40;87.30
73939;DHT22;62291;47.554;8.504;2023-04-09T12:18:36;14.60;86.10
73939;DHT22;62291;47.554;8.504;2023-04-09T12:21:02;14.70;84.30
73939;DHT22;62291;47.554;8.504;2023-04-09T12:23:28;14.60;80.60
73939;DHT22;62291;47.554;8.504;2023-04-09T12:25:55;13.90;85.00
73939;DHT22;62291;47.554;8.504;2023-04-09T12:28:23;13.60;88.50
73939;DHT22;62291;47.554;8.504;2023-04-09T12:30:49;13.80;84.60
73939;DHT22;62291;47.554;8.504;2023-04-09T12:33:15;14.10;85.00
73939;DHT22;62291;47.554;8.504;2023-04-09T12:35:40;14.20;79.80
73939;DHT22;62291;47.554;8.504;2023-04-09T12:38:06;14.40;76.30
73939;DHT22;62291;47.554;8.504;2023-04-09T12:40:32;14.50;81.00
73939;DHT22;62291;47.554;8.504;2023-04-09T12:42:57;14.60;85.40
73939;DHT22;62291;47.554;8.504;2023-04-09T12:45:23;14.70;83.90
73939;DHT22;62291;47.554;8.504;2023-04-09T12:47:48;14.70;84.70
73939;DHT22;62291;47.554;8.504;2023-04-09T12:50:15;14.40;85.10
73939;DHT22;62291;47.554;8.504;2023-04-09T12:52:41;14.30;82.90
73939;DHT22;62291;47.554;8.504;2023-04-09T12:55:07;14.20;86.40
73939;DHT22;62291;47.554;8.504;2023-04-09T12:57:33;14.00;77.60
73939;DHT22;62291;47.554;8.504;2023-04-09T12:59:58;14.20;83.70
73939;DHT22;62291;47.554;8.504;2023-04-09T13:02:24;14.30;87.20
73939;DHT22;62291;47.554;8.504;2023-04-09T13:04:50;14.30;83.90
73939;DHT22;62291;47.554;8.504;2023-04-09T13:07:15;14.50;88.80
73939;DHT22;62291;47.554;8.504;2023-04-09T13:09:47;14.50;82.40
73939;DHT22;62291;47.554;8.504;2023-04-09T13:12:16;14.70;86.60
73939;DHT22;62291;47.554;8.504;2023-04-09T13:14:42;14.70;89.50
73939;DHT22;62291;47.554;8.504;2023-04-09T13:17:09;14.60;82.60
73939;DHT22;62291;47.554;8.504;2023-04-09T13:19:35;14.60;84.00
73939;DHT22;62291;47.554;8.504;2023-04-09T13:22:00;14.60;80.60
73939;DHT22;62291;47.554;8.504;2023-04-09T13:24:26;14.40;78.50
73939;DHT22;62291;47.554;8.504;2023-04-09T13:26:51;14.20;85.30
73939;DHT22;62291;47.554;8.504;2023-04-09T13:29:20;14.00;87.40
73939;DHT22;62291;47.554;8.504;2023-04-09T13:31:46;14.20;88.80
73939;DHT22;62291;47.554;8.504;2023-04-09T13:34:11;14.50;88.40
73939;DHT22;62291;47.554;8.504;2023-04-09T13:36:37;14.50;80.30
73939;DHT22;62291;47.554;8.504;2023-04-09T13:39:03;14.30;79.50
73939;DHT22;62291;47.554;8.504;2023-04-09T13:41:30;14.10;82.90
73939;DHT22;62291;47.554;8.504;2023-04-09T13:43:57;14.20;80.10
73939;DHT22;62291;47.554;8.504;2023-04-09T13:46:22;14.20;85.10
73939;DHT22;62291;47.554;8.504;2023-04-09T13:48:48;14.20;83.60
73939;DHT22;62291;47.554;8.504;2023-04-09T13:51:13;14.30;83.80
73939;DHT22;62291;47.554;8.504;2023-04-09T13:53:39;14.40;82.90
73939;DHT22;62291;47.554;8.504;2023-04-09T13:56:05;14.20;85.00
73939;DHT22;62291;47.554;8.504;2023-04-09T13:58:31;14.00;80.80
73939;DHT22;62291;47.554;8.504;2023-04-09T14:00:56;13.90;79.40
73939;DHT22;62291;47.554;8.504;2023-04-09T14:03:22;14.00;87.30
73939;DHT22;62291;47.554;8.504;2023-04-09T14:05:47;14.20;81.10
73939;DHT22;62291;47.554;8.504;2023-04-09T14:08:14;14.20;83.60
73939;DHT22;62291;47.554;8.504;2023-04-09T14:10:40;14.20;78.80
73939;DHT22;62291;47.554;8.504;2023-04-09T14:13:06;14.00;83.70
73939;DHT22;62291;47.554;8.504;2023-04-09T14:15:34;13.90;84.40
73939;DHT22;62291;47.554;8.504;2023-04-09T14:18:01;13.90;84.40
73939;DHT22;62291;47.554;8.504;2023-04-09T14:20:26;14.00;82.60
73939;DHT22;62291;47.554;8.504;2023-04-09T14:22:52;13.90;85.50
73939;DHT22;62291;47.554;8.504;2023-04-09T14:25:17;13.80;83.30
73939;DHT22;62291;47.554;8.504;2023-04-09T14:27:43;13.80;85.70
73939;DHT22;62291;47.554;8.504;2023-04-09T14:30:08;13.70;85.50
73939;DHT22;62291;47.554;8.504;2023-04-09T14:32:35;13.70;87.60
73939;DHT22;62291;47.554;8.504;2023-04-09T14:35:00;13.60;83.70
73939;DHT22;62291;47.554;8.504;2023-04-09T14:37:26;13.50;82.20
73939;DHT22;62291;47.554;8.504;2023-04-09T14:39:52;13.40;82.30
73939;DHT22;62291;47.554;8.504;2023-04-09T14:42:17;13.30;82.60
73939;DHT22;62291;47.554;8.504;2023-04-09T14:44:43;13.10;81.20
73939;DHT22;62291;47.554;8.504;2023-04-09T14:47:09;13.00;80.60
73939;DHT22;62291;47.554;8.504;2023-04-09T14:49:34;13.00;84.30
73939;DHT22;62291;47.554;8.504;2023-04-09T14:52:00;13.10;83.50
73939;DHT22;62291;47.554;8.504;2023-04-09T14:54:25;13.10;81.00
73939;DHT22;62291;47.554;8.504;2023-04-09T14:56:51;13.10;82.00
73939;DHT22;62291;47.554;8.504;2023-04-09T14:59:16;13.10;82.20
73939;DHT22;62291;47.554;8.504;2023-04-09T15:01:42;13.20;84.20
73939;DHT22;62291;47.554;8.504;2023-04-09T15:04:07;13.10;81.50
73939;DHT22;62291;47.554;8.504;2023-04-09T15:06:33;13.10;82.00
73939;DHT22;62291;47.554;8.504;2023-04-09T15:08:59;13.10;80.10
73939;DHT22;62291;47.554;8.504;2023-04-09T15:11:24;13.10;82.10
73939;DHT22;62291;47.554;8.504;2023-04-09T15:13:50;13.10;84.00
73939;DHT22;62291;47.554;8.504;2023-04-09T15:16:19;13.00;81.60
73939;DHT22;62291;47.554;8.504;2023-04-09T15:18:45;13.10;82.70
73939;DHT22;62291;47.554;8.504;2023-04-09T15:21:13;13.10;81.50
73939;DHT22;62291;47.554;8.504;2023-04-09T15:23:39;13.00;83.00
73939;DHT22;62291;47.554;8.504;2023-04-09T15:26:04;12.80;80.80
73939;DHT22;62291;47.554;8.504;2023-04-09T15:28:30;12.70;80.60
73939;DHT22;62291;47.554;8.504;2023-04-09T15:30:55;12.70;81.10
73939;DHT22;62291;47.554;8.504;2023-04-09T15:33:21;12.80;84.50
73939;DHT22;62291;47.554;8.504;2023-04-09T15:35:46;12.80;83.40
73939;DHT22;62291;47.554;8.504;2023-04-09T15:38:12;12.70;82.20
73939;DHT22;62291;47.554;8.504;2023-04-09T15:40:40;12.70;82.70
73939;DHT22;62291;47.554;8.504;2023-04-09T15:43:06;12.70;81.80
73939;DHT22;62291;47.554;8.504;2023-04-09T15:45:32;12.70;80.90
73939;DHT22;62291;47.554;8.504;2023-04-09T15:47:57;12.70;83.30
73939;DHT22;62291;47.554;8.504;2023-04-09T15:50:23;12.70;81.30